Lorane, Indiana
Current Conditions -  °F | °C
As of 7:54 AM on Thursday 30 Oct 2014 (Local Time) from KFWA Reporting Station
Overcast Overcast  
Wind Chill: 43°   Ceiling: 3600
Heat Index: 43°   Visibility: 10mi
Dew Point: 37°   Wind: 3mph
Humidity: 80%   Direction: 220°SW
Pressure: 30.15"   Gusts: NA
Location:  41.1479°N, 85.4772°W
Report Text: KFWA 301154Z 22003KT 10SM OVC036 06/03 A3015 RMK AO2 SLP214 T00610028 10061 20061 51002
Loading
Personal Weather Stations






























Interactive Weather Map
Tropical Storm Tracking
New forecast layout! Learn more

10-Day Weather Forecast

Advertisements
Track Severe Weather on mobile